Thursday, August 28, 2014
11:12 UTC
  |  Log In   |  Register Free
Airport Search:

Lewis University Airport
(KLOT)

Lewis University Airport Diagram
No Airport Diagram Available

FAA data valid effective July 24, 2014 until September 18, 2014 (unless otherwise noted).

 
 
 
 
 
 
 
 
 
 
 
 
 
 

Current Aviation Weather for Lewis University Airport (KLOT)

The most recent METAR observation for KLOT was updated at: 1835 UTC
METAR Summary (Translated METAR)
KLOT
281835Z AUTO 01012G18KT 10SM CLR 21/06 A3009 RMK AO2 T02100056 TSNO
KJOT
(6.4 nm SW from KLOT)
281835Z AUTO 36014G22KT 10SM CLR 21/06 A3010 RMK AO2 T02130057
TAF Summary (Translated TAF)
KMDW
(18.8 nm NE from KLOT)
280900Z 2809/2906 06007KT P6SM SCT070 BKN250 FM281400 09008KT P6SM SCT100 BKN150 FM281900 09010KT P6SM SCT060 OVC150 FM290100 10008KT P6SM OVC050 PROB30 2903/2906 SHRA
  Airport Weather Conditions for KLOT

 Current Weather at LOT
64° F
Fair
East winds at 5.8 mph
LOT NOAA Radar

Pressure: 30.12 in
Humidity: 89%
Wind: East at 5.8 MPH (5 KT)
Dew Point: 60.1°F
Visibility: 10.00 mi


Airport Weather Forecast for KLOT

Translated METAR and TAF for KLOT
Translated METAR for KLOT (1106 UTC 28 August 2014)
found at http://aviationweather.gov/adds/metars/
 
METAR text: KLOT 281055Z AUTO 10005KT 10SM CLR 17/15 A3013 RMK AO2 T01700152
Conditions at: KLOT (ROMEOVILLE/CHI , IL, US) observed 1055 UTC 28 August 2014
Temperature: 17.0°C (63°F)
Dewpoint: 15.2°C (59°F) [RH = 89%]
Pressure (altimeter): 30.13 inches Hg (1020.4 mb)
Winds: from the E (100 degrees) at 6 MPH (5 knots; 2.6 m/s)
Visibility: 10 or more miles (16+ km)
Ceiling: at least 12,000 feet AGL
Clouds: sky clear below 12,000 feet AGL
Weather: automated observation with no human augmentation;
there may or may not be significant weather present at this time
Translated TAF for KLOT

There is no translated TAF available for this airport

Find All Airport Services Find A Hotel Find A Rental Car Find A Golf Course Find A Restaurant $100 Hamburger



FBO's on the Field
FBO Company Facility Photos Services Transportation Aviation Fuel Prices: Prices include tax
Catering Weather Repair Courtesy Rental Type 100LL JetA JetA+ MOGAS 8087
 
Lewis University Airport

This FBO has not yet been rated
FS:Phillips66
Last Updated: Aug-04
Login to update fuel prices
SS:
Contact Lewis University AirportMore FBO Information
 
Add another FBO Facility Photos Catering Weather Repair Courtesy Rental Type 100LL JetA JetA+ MOGAS 8087
Services Transportation Aviation Fuel Prices: Prices include tax


GlobalAir.com Airport Resource Center model-print
model-print
model-print
model-print